sensor_id;sensor_type;location;lat;lon;timestamp;P1;durP1;ratioP1;P2;durP2;ratioP2
11598;SDS011;5855;48.840;9.188;2022-08-21T00:00:43;4.88;;;2.63;;
11598;SDS011;5855;48.840;9.188;2022-08-21T00:03:11;4.30;;;2.60;;
11598;SDS011;5855;48.840;9.188;2022-08-21T00:05:39;3.75;;;2.63;;
11598;SDS011;5855;48.840;9.188;2022-08-21T00:08:12;3.85;;;2.65;;
11598;SDS011;5855;48.840;9.188;2022-08-21T00:10:39;5.07;;;2.70;;
11598;SDS011;5855;48.840;9.188;2022-08-21T00:13:08;5.78;;;2.95;;
11598;SDS011;5855;48.840;9.188;2022-08-21T00:15:36;6.32;;;2.92;;
11598;SDS011;5855;48.840;9.188;2022-08-21T00:18:04;5.07;;;3.00;;
11598;SDS011;5855;48.840;9.188;2022-08-21T00:20:33;4.70;;;3.10;;
11598;SDS011;5855;48.840;9.188;2022-08-21T00:23:00;4.05;;;2.70;;
11598;SDS011;5855;48.840;9.188;2022-08-21T00:25:28;3.83;;;2.70;;
11598;SDS011;5855;48.840;9.188;2022-08-21T00:27:56;5.18;;;2.63;;
11598;SDS011;5855;48.840;9.188;2022-08-21T00:30:24;4.15;;;2.83;;
11598;SDS011;5855;48.840;9.188;2022-08-21T00:32:52;5.00;;;2.88;;
11598;SDS011;5855;48.840;9.188;2022-08-21T00:35:21;4.18;;;2.70;;
11598;SDS011;5855;48.840;9.188;2022-08-21T00:37:51;5.05;;;2.90;;
11598;SDS011;5855;48.840;9.188;2022-08-21T00:40:19;3.72;;;2.78;;
11598;SDS011;5855;48.840;9.188;2022-08-21T00:42:49;4.35;;;2.70;;
11598;SDS011;5855;48.840;9.188;2022-08-21T00:45:16;8.30;;;3.00;;
11598;SDS011;5855;48.840;9.188;2022-08-21T00:47:43;5.55;;;2.75;;
11598;SDS011;5855;48.840;9.188;2022-08-21T00:50:10;4.18;;;3.03;;
11598;SDS011;5855;48.840;9.188;2022-08-21T00:52:38;3.90;;;2.63;;
11598;SDS011;5855;48.840;9.188;2022-08-21T00:55:07;5.53;;;2.75;;
11598;SDS011;5855;48.840;9.188;2022-08-21T00:57:36;4.60;;;3.00;;
11598;SDS011;5855;48.840;9.188;2022-08-21T01:00:11;4.47;;;2.97;;
11598;SDS011;5855;48.840;9.188;2022-08-21T01:02:41;4.25;;;2.95;;
11598;SDS011;5855;48.840;9.188;2022-08-21T01:05:08;3.95;;;2.88;;
11598;SDS011;5855;48.840;9.188;2022-08-21T01:07:36;4.35;;;3.00;;
11598;SDS011;5855;48.840;9.188;2022-08-21T01:10:03;3.75;;;2.80;;
11598;SDS011;5855;48.840;9.188;2022-08-21T01:12:31;5.30;;;2.92;;
11598;SDS011;5855;48.840;9.188;2022-08-21T01:14:58;3.55;;;3.03;;
11598;SDS011;5855;48.840;9.188;2022-08-21T01:17:28;4.68;;;3.10;;
11598;SDS011;5855;48.840;9.188;2022-08-21T01:19:57;4.82;;;3.00;;
11598;SDS011;5855;48.840;9.188;2022-08-21T01:22:25;3.88;;;2.67;;
11598;SDS011;5855;48.840;9.188;2022-08-21T01:24:52;4.95;;;3.22;;
11598;SDS011;5855;48.840;9.188;2022-08-21T01:27:19;7.13;;;3.03;;
11598;SDS011;5855;48.840;9.188;2022-08-21T01:29:51;3.40;;;2.72;;
11598;SDS011;5855;48.840;9.188;2022-08-21T01:32:20;6.95;;;3.00;;
11598;SDS011;5855;48.840;9.188;2022-08-21T01:34:49;3.70;;;2.60;;
11598;SDS011;5855;48.840;9.188;2022-08-21T01:37:16;4.90;;;2.53;;
11598;SDS011;5855;48.840;9.188;2022-08-21T01:39:46;3.53;;;2.70;;
11598;SDS011;5855;48.840;9.188;2022-08-21T01:42:13;4.30;;;2.97;;
11598;SDS011;5855;48.840;9.188;2022-08-21T01:44:41;4.45;;;2.75;;
11598;SDS011;5855;48.840;9.188;2022-08-21T01:47:09;3.40;;;2.60;;
11598;SDS011;5855;48.840;9.188;2022-08-21T01:49:38;4.00;;;2.90;;
11598;SDS011;5855;48.840;9.188;2022-08-21T01:52:06;4.07;;;2.70;;
11598;SDS011;5855;48.840;9.188;2022-08-21T01:54:33;4.15;;;3.20;;
11598;SDS011;5855;48.840;9.188;2022-08-21T01:57:01;5.53;;;3.10;;
11598;SDS011;5855;48.840;9.188;2022-08-21T01:59:28;4.68;;;3.22;;
11598;SDS011;5855;48.840;9.188;2022-08-21T02:01:56;3.40;;;2.78;;
11598;SDS011;5855;48.840;9.188;2022-08-21T02:04:23;3.50;;;2.60;;
11598;SDS011;5855;48.840;9.188;2022-08-21T02:06:50;3.75;;;2.63;;
11598;SDS011;5855;48.840;9.188;2022-08-21T02:09:17;3.85;;;3.42;;
11598;SDS011;5855;48.840;9.188;2022-08-21T02:11:46;6.25;;;2.80;;
11598;SDS011;5855;48.840;9.188;2022-08-21T02:14:15;4.30;;;3.25;;
11598;SDS011;5855;48.840;9.188;2022-08-21T02:16:42;4.45;;;2.67;;
11598;SDS011;5855;48.840;9.188;2022-08-21T02:19:10;4.63;;;3.20;;
11598;SDS011;5855;48.840;9.188;2022-08-21T02:21:38;5.15;;;3.20;;
11598;SDS011;5855;48.840;9.188;2022-08-21T02:24:06;6.93;;;3.00;;
11598;SDS011;5855;48.840;9.188;2022-08-21T02:26:34;8.18;;;3.55;;
11598;SDS011;5855;48.840;9.188;2022-08-21T02:29:02;4.50;;;3.10;;
11598;SDS011;5855;48.840;9.188;2022-08-21T02:31:31;4.43;;;3.30;;
11598;SDS011;5855;48.840;9.188;2022-08-21T02:33:58;3.85;;;2.88;;
11598;SDS011;5855;48.840;9.188;2022-08-21T02:36:25;3.65;;;2.70;;
11598;SDS011;5855;48.840;9.188;2022-08-21T02:38:52;5.05;;;3.08;;
11598;SDS011;5855;48.840;9.188;2022-08-21T02:41:20;7.05;;;3.28;;
11598;SDS011;5855;48.840;9.188;2022-08-21T02:43:48;4.30;;;3.30;;
11598;SDS011;5855;48.840;9.188;2022-08-21T02:46:16;4.43;;;3.35;;
11598;SDS011;5855;48.840;9.188;2022-08-21T02:48:46;6.85;;;3.42;;
11598;SDS011;5855;48.840;9.188;2022-08-21T02:51:13;4.38;;;3.15;;
11598;SDS011;5855;48.840;9.188;2022-08-21T02:53:43;3.45;;;2.97;;
11598;SDS011;5855;48.840;9.188;2022-08-21T02:56:12;4.57;;;2.80;;
11598;SDS011;5855;48.840;9.188;2022-08-21T02:58:41;3.40;;;2.85;;
11598;SDS011;5855;48.840;9.188;2022-08-21T03:01:10;5.38;;;3.10;;
11598;SDS011;5855;48.840;9.188;2022-08-21T03:03:37;4.35;;;3.45;;
11598;SDS011;5855;48.840;9.188;2022-08-21T03:06:08;4.68;;;3.30;;
11598;SDS011;5855;48.840;9.188;2022-08-21T03:08:36;3.80;;;3.10;;
11598;SDS011;5855;48.840;9.188;2022-08-21T03:11:03;3.85;;;2.80;;
11598;SDS011;5855;48.840;9.188;2022-08-21T03:13:30;3.55;;;3.08;;
11598;SDS011;5855;48.840;9.188;2022-08-21T03:15:58;4.72;;;3.60;;
11598;SDS011;5855;48.840;9.188;2022-08-21T03:18:25;6.13;;;4.00;;
11598;SDS011;5855;48.840;9.188;2022-08-21T03:20:51;6.50;;;3.28;;
11598;SDS011;5855;48.840;9.188;2022-08-21T03:23:20;3.92;;;2.85;;
11598;SDS011;5855;48.840;9.188;2022-08-21T03:25:47;4.47;;;3.03;;
11598;SDS011;5855;48.840;9.188;2022-08-21T03:28:16;5.38;;;3.45;;
11598;SDS011;5855;48.840;9.188;2022-08-21T03:30:47;4.28;;;3.20;;
11598;SDS011;5855;48.840;9.188;2022-08-21T03:33:15;3.80;;;3.05;;
11598;SDS011;5855;48.840;9.188;2022-08-21T03:35:42;5.25;;;3.50;;
11598;SDS011;5855;48.840;9.188;2022-08-21T03:38:11;3.67;;;2.92;;
11598;SDS011;5855;48.840;9.188;2022-08-21T03:40:40;5.07;;;3.30;;
11598;SDS011;5855;48.840;9.188;2022-08-21T03:43:07;3.90;;;3.17;;
11598;SDS011;5855;48.840;9.188;2022-08-21T03:45:35;6.50;;;3.15;;
11598;SDS011;5855;48.840;9.188;2022-08-21T03:48:03;4.55;;;3.30;;
11598;SDS011;5855;48.840;9.188;2022-08-21T03:50:32;3.75;;;3.00;;
11598;SDS011;5855;48.840;9.188;2022-08-21T03:53:02;4.38;;;3.03;;
11598;SDS011;5855;48.840;9.188;2022-08-21T03:55:29;3.95;;;3.00;;
11598;SDS011;5855;48.840;9.188;2022-08-21T03:57:58;3.97;;;3.10;;
11598;SDS011;5855;48.840;9.188;2022-08-21T04:00:25;3.40;;;3.08;;
11598;SDS011;5855;48.840;9.188;2022-08-21T04:02:52;5.22;;;3.30;;
11598;SDS011;5855;48.840;9.188;2022-08-21T04:05:19;5.07;;;3.20;;
11598;SDS011;5855;48.840;9.188;2022-08-21T04:07:53;5.68;;;3.58;;
11598;SDS011;5855;48.840;9.188;2022-08-21T04:10:22;5.18;;;3.28;;
11598;SDS011;5855;48.840;9.188;2022-08-21T04:12:50;4.90;;;3.22;;
11598;SDS011;5855;48.840;9.188;2022-08-21T04:15:19;5.95;;;3.53;;
11598;SDS011;5855;48.840;9.188;2022-08-21T04:17:47;4.38;;;3.80;;
11598;SDS011;5855;48.840;9.188;2022-08-21T04:20:14;4.60;;;3.20;;
11598;SDS011;5855;48.840;9.188;2022-08-21T04:22:42;3.80;;;3.45;;
11598;SDS011;5855;48.840;9.188;2022-08-21T04:25:09;3.83;;;3.35;;
11598;SDS011;5855;48.840;9.188;2022-08-21T04:27:36;4.32;;;3.38;;
11598;SDS011;5855;48.840;9.188;2022-08-21T04:30:05;3.58;;;3.20;;
11598;SDS011;5855;48.840;9.188;2022-08-21T04:32:35;4.05;;;3.30;;
11598;SDS011;5855;48.840;9.188;2022-08-21T04:35:04;4.80;;;3.42;;
11598;SDS011;5855;48.840;9.188;2022-08-21T04:37:34;3.50;;;3.20;;
11598;SDS011;5855;48.840;9.188;2022-08-21T04:40:01;4.22;;;3.05;;
11598;SDS011;5855;48.840;9.188;2022-08-21T04:42:29;5.57;;;3.30;;
11598;SDS011;5855;48.840;9.188;2022-08-21T04:44:56;3.67;;;3.35;;
11598;SDS011;5855;48.840;9.188;2022-08-21T04:47:22;6.82;;;4.07;;
11598;SDS011;5855;48.840;9.188;2022-08-21T04:49:51;7.22;;;3.90;;
11598;SDS011;5855;48.840;9.188;2022-08-21T04:52:19;5.72;;;3.75;;
11598;SDS011;5855;48.840;9.188;2022-08-21T04:54:48;6.88;;;3.42;;
11598;SDS011;5855;48.840;9.188;2022-08-21T04:57:18;4.35;;;3.30;;
11598;SDS011;5855;48.840;9.188;2022-08-21T04:59:46;3.58;;;3.10;;
11598;SDS011;5855;48.840;9.188;2022-08-21T05:02:14;4.63;;;3.22;;
11598;SDS011;5855;48.840;9.188;2022-08-21T05:04:42;5.80;;;3.10;;
11598;SDS011;5855;48.840;9.188;2022-08-21T05:07:14;5.93;;;3.58;;
11598;SDS011;5855;48.840;9.188;2022-08-21T05:09:45;4.20;;;3.50;;
11598;SDS011;5855;48.840;9.188;2022-08-21T05:12:12;4.95;;;3.70;;
11598;SDS011;5855;48.840;9.188;2022-08-21T05:14:39;5.65;;;3.65;;
11598;SDS011;5855;48.840;9.188;2022-08-21T05:17:07;4.80;;;3.38;;
11598;SDS011;5855;48.840;9.188;2022-08-21T05:19:34;4.90;;;3.50;;
11598;SDS011;5855;48.840;9.188;2022-08-21T05:22:01;5.97;;;3.33;;
11598;SDS011;5855;48.840;9.188;2022-08-21T05:24:29;5.30;;;3.55;;
11598;SDS011;5855;48.840;9.188;2022-08-21T05:26:56;3.33;;;3.03;;
11598;SDS011;5855;48.840;9.188;2022-08-21T05:29:23;5.25;;;3.63;;
11598;SDS011;5855;48.840;9.188;2022-08-21T05:31:50;4.10;;;3.22;;
11598;SDS011;5855;48.840;9.188;2022-08-21T05:34:18;3.50;;;3.20;;
11598;SDS011;5855;48.840;9.188;2022-08-21T05:36:46;4.05;;;3.55;;
11598;SDS011;5855;48.840;9.188;2022-08-21T05:39:14;3.67;;;3.22;;
11598;SDS011;5855;48.840;9.188;2022-08-21T05:41:42;5.07;;;3.15;;
11598;SDS011;5855;48.840;9.188;2022-08-21T05:44:09;4.25;;;3.50;;
11598;SDS011;5855;48.840;9.188;2022-08-21T05:46:36;6.10;;;3.40;;
11598;SDS011;5855;48.840;9.188;2022-08-21T05:49:03;4.05;;;3.50;;
11598;SDS011;5855;48.840;9.188;2022-08-21T05:51:30;5.85;;;3.53;;
11598;SDS011;5855;48.840;9.188;2022-08-21T05:53:57;4.32;;;3.30;;
11598;SDS011;5855;48.840;9.188;2022-08-21T05:56:24;5.00;;;3.55;;
11598;SDS011;5855;48.840;9.188;2022-08-21T05:58:52;4.82;;;3.35;;
11598;SDS011;5855;48.840;9.188;2022-08-21T06:01:19;4.85;;;3.13;;
11598;SDS011;5855;48.840;9.188;2022-08-21T06:03:46;6.50;;;3.70;;
11598;SDS011;5855;48.840;9.188;2022-08-21T06:06:13;3.78;;;3.13;;
11598;SDS011;5855;48.840;9.188;2022-08-21T06:08:40;4.95;;;3.85;;
11598;SDS011;5855;48.840;9.188;2022-08-21T06:11:08;6.80;;;3.40;;
11598;SDS011;5855;48.840;9.188;2022-08-21T06:13:35;4.13;;;3.08;;
11598;SDS011;5855;48.840;9.188;2022-08-21T06:16:06;4.03;;;3.30;;
11598;SDS011;5855;48.840;9.188;2022-08-21T06:18:35;3.40;;;3.10;;
11598;SDS011;5855;48.840;9.188;2022-08-21T06:21:03;3.75;;;3.00;;
11598;SDS011;5855;48.840;9.188;2022-08-21T06:23:31;4.15;;;3.10;;
11598;SDS011;5855;48.840;9.188;2022-08-21T06:25:59;3.72;;;3.00;;
11598;SDS011;5855;48.840;9.188;2022-08-21T06:28:26;3.78;;;3.10;;
11598;SDS011;5855;48.840;9.188;2022-08-21T06:30:53;4.07;;;3.17;;
11598;SDS011;5855;48.840;9.188;2022-08-21T06:33:21;5.13;;;3.40;;
11598;SDS011;5855;48.840;9.188;2022-08-21T06:35:48;3.58;;;2.78;;
11598;SDS011;5855;48.840;9.188;2022-08-21T06:38:15;4.75;;;3.10;;
11598;SDS011;5855;48.840;9.188;2022-08-21T06:40:43;5.90;;;2.90;;
11598;SDS011;5855;48.840;9.188;2022-08-21T06:43:11;3.28;;;2.95;;
11598;SDS011;5855;48.840;9.188;2022-08-21T06:45:39;5.70;;;3.05;;
11598;SDS011;5855;48.840;9.188;2022-08-21T06:48:07;3.30;;;2.97;;
11598;SDS011;5855;48.840;9.188;2022-08-21T06:50:35;4.43;;;3.00;;
11598;SDS011;5855;48.840;9.188;2022-08-21T06:53:02;3.78;;;2.92;;
11598;SDS011;5855;48.840;9.188;2022-08-21T06:55:31;7.03;;;3.38;;
11598;SDS011;5855;48.840;9.188;2022-08-21T06:58:02;6.75;;;3.33;;
11598;SDS011;5855;48.840;9.188;2022-08-21T07:00:29;4.30;;;2.88;;
11598;SDS011;5855;48.840;9.188;2022-08-21T07:02:56;7.68;;;3.20;;
11598;SDS011;5855;48.840;9.188;2022-08-21T07:05:25;5.43;;;2.63;;
11598;SDS011;5855;48.840;9.188;2022-08-21T07:07:53;6.10;;;2.85;;
11598;SDS011;5855;48.840;9.188;2022-08-21T07:10:20;5.20;;;3.22;;
11598;SDS011;5855;48.840;9.188;2022-08-21T07:12:47;4.88;;;2.85;;
11598;SDS011;5855;48.840;9.188;2022-08-21T07:15:14;4.25;;;2.65;;
11598;SDS011;5855;48.840;9.188;2022-08-21T07:17:40;5.28;;;3.20;;
11598;SDS011;5855;48.840;9.188;2022-08-21T07:20:08;5.38;;;2.65;;
11598;SDS011;5855;48.840;9.188;2022-08-21T07:22:35;6.00;;;3.00;;
11598;SDS011;5855;48.840;9.188;2022-08-21T07:25:05;4.38;;;2.60;;
11598;SDS011;5855;48.840;9.188;2022-08-21T07:27:33;4.20;;;2.70;;
11598;SDS011;5855;48.840;9.188;2022-08-21T07:30:00;5.90;;;3.17;;
11598;SDS011;5855;48.840;9.188;2022-08-21T07:32:27;5.03;;;2.95;;
11598;SDS011;5855;48.840;9.188;2022-08-21T07:34:54;8.43;;;3.65;;
11598;SDS011;5855;48.840;9.188;2022-08-21T07:37:21;5.20;;;2.85;;
11598;SDS011;5855;48.840;9.188;2022-08-21T07:39:48;7.90;;;3.00;;
11598;SDS011;5855;48.840;9.188;2022-08-21T07:42:17;11.23;;;3.35;;
11598;SDS011;5855;48.840;9.188;2022-08-21T07:44:44;3.92;;;3.17;;
11598;SDS011;5855;48.840;9.188;2022-08-21T07:47:11;6.30;;;3.08;;
11598;SDS011;5855;48.840;9.188;2022-08-21T07:49:38;5.75;;;2.88;;
11598;SDS011;5855;48.840;9.188;2022-08-21T07:52:05;5.95;;;3.33;;
11598;SDS011;5855;48.840;9.188;2022-08-21T07:54:32;5.38;;;3.05;;
11598;SDS011;5855;48.840;9.188;2022-08-21T07:56:59;4.88;;;2.90;;
11598;SDS011;5855;48.840;9.188;2022-08-21T07:59:27;5.30;;;2.92;;
11598;SDS011;5855;48.840;9.188;2022-08-21T08:01:54;5.90;;;3.17;;
11598;SDS011;5855;48.840;9.188;2022-08-21T08:04:21;6.47;;;3.00;;
11598;SDS011;5855;48.840;9.188;2022-08-21T08:06:48;4.82;;;2.80;;
11598;SDS011;5855;48.840;9.188;2022-08-21T08:09:15;5.53;;;3.00;;
11598;SDS011;5855;48.840;9.188;2022-08-21T08:11:42;6.53;;;2.92;;
11598;SDS011;5855;48.840;9.188;2022-08-21T08:14:10;5.93;;;2.75;;
11598;SDS011;5855;48.840;9.188;2022-08-21T08:16:38;7.22;;;3.00;;
11598;SDS011;5855;48.840;9.188;2022-08-21T08:19:05;7.03;;;3.33;;
11598;SDS011;5855;48.840;9.188;2022-08-21T08:21:32;6.43;;;2.72;;
11598;SDS011;5855;48.840;9.188;2022-08-21T08:24:00;6.63;;;3.17;;
11598;SDS011;5855;48.840;9.188;2022-08-21T08:26:27;5.32;;;3.00;;
11598;SDS011;5855;48.840;9.188;2022-08-21T08:28:54;9.23;;;3.05;;
11598;SDS011;5855;48.840;9.188;2022-08-21T08:31:21;6.15;;;2.97;;
11598;SDS011;5855;48.840;9.188;2022-08-21T08:33:50;8.13;;;3.00;;
11598;SDS011;5855;48.840;9.188;2022-08-21T08:36:17;6.57;;;3.10;;
11598;SDS011;5855;48.840;9.188;2022-08-21T08:38:45;6.97;;;3.20;;
11598;SDS011;5855;48.840;9.188;2022-08-21T08:41:13;9.52;;;3.42;;
11598;SDS011;5855;48.840;9.188;2022-08-21T08:43:43;6.30;;;3.03;;
11598;SDS011;5855;48.840;9.188;2022-08-21T08:46:16;5.90;;;2.90;;
11598;SDS011;5855;48.840;9.188;2022-08-21T08:48:53;6.13;;;3.38;;
11598;SDS011;5855;48.840;9.188;2022-08-21T08:51:25;6.40;;;3.33;;
11598;SDS011;5855;48.840;9.188;2022-08-21T08:54:01;5.03;;;2.67;;
11598;SDS011;5855;48.840;9.188;2022-08-21T08:56:32;6.10;;;3.00;;
11598;SDS011;5855;48.840;9.188;2022-08-21T08:59:01;6.00;;;3.28;;
11598;SDS011;5855;48.840;9.188;2022-08-21T09:01:33;7.25;;;3.22;;
11598;SDS011;5855;48.840;9.188;2022-08-21T09:04:02;5.57;;;2.95;;
11598;SDS011;5855;48.840;9.188;2022-08-21T09:06:49;5.75;;;3.35;;
11598;SDS011;5855;48.840;9.188;2022-08-21T09:09:29;6.82;;;3.40;;
11598;SDS011;5855;48.840;9.188;2022-08-21T09:12:06;6.57;;;3.10;;
11598;SDS011;5855;48.840;9.188;2022-08-21T09:14:41;4.57;;;2.92;;
11598;SDS011;5855;48.840;9.188;2022-08-21T09:17:30;5.40;;;3.10;;
11598;SDS011;5855;48.840;9.188;2022-08-21T09:20:14;6.13;;;3.30;;
11598;SDS011;5855;48.840;9.188;2022-08-21T09:22:52;6.03;;;3.40;;
11598;SDS011;5855;48.840;9.188;2022-08-21T09:25:38;5.93;;;3.10;;
11598;SDS011;5855;48.840;9.188;2022-08-21T09:28:08;4.88;;;2.90;;
11598;SDS011;5855;48.840;9.188;2022-08-21T09:30:39;5.93;;;3.20;;
11598;SDS011;5855;48.840;9.188;2022-08-21T09:33:06;6.18;;;3.03;;
11598;SDS011;5855;48.840;9.188;2022-08-21T09:35:47;5.63;;;3.03;;
11598;SDS011;5855;48.840;9.188;2022-08-21T09:38:23;5.07;;;2.85;;
11598;SDS011;5855;48.840;9.188;2022-08-21T09:40:55;5.72;;;3.08;;
11598;SDS011;5855;48.840;9.188;2022-08-21T09:43:24;4.47;;;2.92;;
11598;SDS011;5855;48.840;9.188;2022-08-21T09:46:01;5.30;;;2.80;;
11598;SDS011;5855;48.840;9.188;2022-08-21T09:48:43;5.53;;;2.95;;
11598;SDS011;5855;48.840;9.188;2022-08-21T09:51:14;6.43;;;3.08;;
11598;SDS011;5855;48.840;9.188;2022-08-21T09:53:45;6.90;;;3.17;;
11598;SDS011;5855;48.840;9.188;2022-08-21T09:56:19;5.50;;;2.90;;
11598;SDS011;5855;48.840;9.188;2022-08-21T09:59:18;5.80;;;2.72;;
11598;SDS011;5855;48.840;9.188;2022-08-21T10:01:51;5.57;;;2.78;;
11598;SDS011;5855;48.840;9.188;2022-08-21T10:04:20;7.18;;;2.75;;
11598;SDS011;5855;48.840;9.188;2022-08-21T10:06:50;5.65;;;2.70;;
11598;SDS011;5855;48.840;9.188;2022-08-21T10:09:18;5.93;;;3.22;;
11598;SDS011;5855;48.840;9.188;2022-08-21T10:11:49;6.57;;;3.13;;
11598;SDS011;5855;48.840;9.188;2022-08-21T10:14:22;4.78;;;2.97;;
11598;SDS011;5855;48.840;9.188;2022-08-21T10:17:01;4.30;;;2.55;;
11598;SDS011;5855;48.840;9.188;2022-08-21T10:19:34;6.65;;;2.60;;
11598;SDS011;5855;48.840;9.188;2022-08-21T10:22:13;5.25;;;2.50;;
11598;SDS011;5855;48.840;9.188;2022-08-21T10:24:52;6.03;;;2.70;;
11598;SDS011;5855;48.840;9.188;2022-08-21T10:27:27;5.72;;;2.80;;
11598;SDS011;5855;48.840;9.188;2022-08-21T10:30:03;5.93;;;2.72;;
11598;SDS011;5855;48.840;9.188;2022-08-21T10:32:36;4.05;;;2.40;;
11598;SDS011;5855;48.840;9.188;2022-08-21T10:35:14;5.03;;;2.80;;
11598;SDS011;5855;48.840;9.188;2022-08-21T10:37:52;5.25;;;2.70;;
11598;SDS011;5855;48.840;9.188;2022-08-21T10:40:40;5.65;;;2.78;;
11598;SDS011;5855;48.840;9.188;2022-08-21T10:43:17;4.68;;;2.90;;
11598;SDS011;5855;48.840;9.188;2022-08-21T10:45:55;5.28;;;2.53;;
11598;SDS011;5855;48.840;9.188;2022-08-21T10:48:29;5.65;;;2.70;;
11598;SDS011;5855;48.840;9.188;2022-08-21T10:51:04;5.63;;;2.40;;
11598;SDS011;5855;48.840;9.188;2022-08-21T10:53:45;4.03;;;2.40;;
11598;SDS011;5855;48.840;9.188;2022-08-21T10:56:27;5.70;;;2.97;;
11598;SDS011;5855;48.840;9.188;2022-08-21T10:59:00;5.35;;;2.50;;
11598;SDS011;5855;48.840;9.188;2022-08-21T11:01:44;5.90;;;2.50;;
11598;SDS011;5855;48.840;9.188;2022-08-21T11:04:17;4.65;;;2.50;;
11598;SDS011;5855;48.840;9.188;2022-08-21T11:06:49;4.97;;;2.80;;
11598;SDS011;5855;48.840;9.188;2022-08-21T11:09:21;6.45;;;2.70;;
11598;SDS011;5855;48.840;9.188;2022-08-21T11:11:52;8.05;;;3.10;;
11598;SDS011;5855;48.840;9.188;2022-08-21T11:14:29;4.13;;;2.60;;
11598;SDS011;5855;48.840;9.188;2022-08-21T11:17:06;5.30;;;2.75;;
11598;SDS011;5855;48.840;9.188;2022-08-21T11:19:38;3.38;;;2.20;;
11598;SDS011;5855;48.840;9.188;2022-08-21T11:22:13;4.60;;;2.45;;
11598;SDS011;5855;48.840;9.188;2022-08-21T11:24:46;4.88;;;2.80;;
11598;SDS011;5855;48.840;9.188;2022-08-21T11:27:21;4.00;;;2.42;;
11598;SDS011;5855;48.840;9.188;2022-08-21T11:29:51;4.65;;;2.63;;
11598;SDS011;5855;48.840;9.188;2022-08-21T11:35:25;4.38;;;2.35;;
11598;SDS011;5855;48.840;9.188;2022-08-21T11:38:01;6.47;;;2.53;;
11598;SDS011;5855;48.840;9.188;2022-08-21T11:41:02;3.40;;;2.10;;
11598;SDS011;5855;48.840;9.188;2022-08-21T11:43:46;5.28;;;2.72;;
11598;SDS011;5855;48.840;9.188;2022-08-21T11:46:19;3.28;;;2.30;;
11598;SDS011;5855;48.840;9.188;2022-08-21T11:48:58;3.85;;;2.42;;
11598;SDS011;5855;48.840;9.188;2022-08-21T11:51:41;4.22;;;2.50;;
11598;SDS011;5855;48.840;9.188;2022-08-21T11:54:20;4.03;;;2.33;;
11598;SDS011;5855;48.840;9.188;2022-08-21T11:56:55;3.40;;;2.00;;
11598;SDS011;5855;48.840;9.188;2022-08-21T11:59:29;3.55;;;2.30;;
11598;SDS011;5855;48.840;9.188;2022-08-21T12:02:10;5.03;;;2.50;;
11598;SDS011;5855;48.840;9.188;2022-08-21T12:04:42;4.28;;;2.63;;
11598;SDS011;5855;48.840;9.188;2022-08-21T12:07:13;4.50;;;2.38;;
11598;SDS011;5855;48.840;9.188;2022-08-21T12:09:51;2.88;;;2.17;;
11598;SDS011;5855;48.840;9.188;2022-08-21T12:12:24;5.18;;;2.58;;
11598;SDS011;5855;48.840;9.188;2022-08-21T12:15:04;4.00;;;2.40;;
11598;SDS011;5855;48.840;9.188;2022-08-21T12:17:40;4.85;;;2.47;;
11598;SDS011;5855;48.840;9.188;2022-08-21T12:20:21;3.97;;;2.13;;
11598;SDS011;5855;48.840;9.188;2022-08-21T12:22:54;3.08;;;2.10;;
11598;SDS011;5855;48.840;9.188;2022-08-21T12:25:35;2.95;;;2.20;;
11598;SDS011;5855;48.840;9.188;2022-08-21T12:28:07;3.78;;;2.10;;
11598;SDS011;5855;48.840;9.188;2022-08-21T12:30:37;4.50;;;2.00;;
11598;SDS011;5855;48.840;9.188;2022-08-21T12:33:09;2.45;;;2.00;;
11598;SDS011;5855;48.840;9.188;2022-08-21T12:35:47;4.32;;;2.35;;
11598;SDS011;5855;48.840;9.188;2022-08-21T12:38:17;2.75;;;2.00;;
11598;SDS011;5855;48.840;9.188;2022-08-21T12:40:48;4.43;;;2.05;;
11598;SDS011;5855;48.840;9.188;2022-08-21T12:43:21;2.88;;;1.60;;
11598;SDS011;5855;48.840;9.188;2022-08-21T12:45:54;2.22;;;1.70;;
11598;SDS011;5855;48.840;9.188;2022-08-21T12:48:23;3.03;;;1.90;;
11598;SDS011;5855;48.840;9.188;2022-08-21T12:50:53;3.72;;;1.85;;
11598;SDS011;5855;48.840;9.188;2022-08-21T12:53:25;2.85;;;1.90;;
11598;SDS011;5855;48.840;9.188;2022-08-21T12:55:56;4.15;;;2.15;;
11598;SDS011;5855;48.840;9.188;2022-08-21T12:58:30;3.80;;;2.17;;
11598;SDS011;5855;48.840;9.188;2022-08-21T13:00:59;3.38;;;2.10;;
11598;SDS011;5855;48.840;9.188;2022-08-21T13:03:30;3.13;;;1.70;;
11598;SDS011;5855;48.840;9.188;2022-08-21T13:05:57;3.00;;;2.00;;
11598;SDS011;5855;48.840;9.188;2022-08-21T13:08:25;3.42;;;1.90;;
11598;SDS011;5855;48.840;9.188;2022-08-21T13:10:56;4.00;;;1.73;;
11598;SDS011;5855;48.840;9.188;2022-08-21T13:13:26;2.70;;;1.85;;
11598;SDS011;5855;48.840;9.188;2022-08-21T13:15:57;4.22;;;2.22;;
11598;SDS011;5855;48.840;9.188;2022-08-21T13:18:26;4.10;;;2.13;;
11598;SDS011;5855;48.840;9.188;2022-08-21T13:21:02;3.22;;;1.83;;
11598;SDS011;5855;48.840;9.188;2022-08-21T13:23:31;3.67;;;1.83;;
11598;SDS011;5855;48.840;9.188;2022-08-21T13:25:58;3.83;;;1.85;;
11598;SDS011;5855;48.840;9.188;2022-08-21T13:28:31;2.95;;;2.13;;
11598;SDS011;5855;48.840;9.188;2022-08-21T13:31:05;2.85;;;1.90;;
11598;SDS011;5855;48.840;9.188;2022-08-21T13:33:34;2.28;;;1.70;;
11598;SDS011;5855;48.840;9.188;2022-08-21T13:36:03;4.30;;;1.98;;
11598;SDS011;5855;48.840;9.188;2022-08-21T13:38:35;3.53;;;1.85;;
11598;SDS011;5855;48.840;9.188;2022-08-21T13:41:04;2.85;;;1.92;;
11598;SDS011;5855;48.840;9.188;2022-08-21T13:43:36;3.05;;;1.92;;
11598;SDS011;5855;48.840;9.188;2022-08-21T13:46:07;3.50;;;1.80;;
11598;SDS011;5855;48.840;9.188;2022-08-21T13:48:37;2.67;;;1.80;;
11598;SDS011;5855;48.840;9.188;2022-08-21T13:51:05;3.78;;;2.13;;
11598;SDS011;5855;48.840;9.188;2022-08-21T13:53:34;1.77;;;1.58;;
11598;SDS011;5855;48.840;9.188;2022-08-21T13:56:03;2.17;;;1.63;;
11598;SDS011;5855;48.840;9.188;2022-08-21T13:58:31;2.63;;;1.45;;
11598;SDS011;5855;48.840;9.188;2022-08-21T14:01:15;2.55;;;1.80;;
11598;SDS011;5855;48.840;9.188;2022-08-21T14:03:45;2.40;;;1.90;;
11598;SDS011;5855;48.840;9.188;2022-08-21T14:06:16;2.40;;;1.70;;
11598;SDS011;5855;48.840;9.188;2022-08-21T14:08:47;1.95;;;1.65;;
11598;SDS011;5855;48.840;9.188;2022-08-21T14:11:17;3.75;;;1.83;;
11598;SDS011;5855;48.840;9.188;2022-08-21T14:13:45;2.05;;;1.60;;
11598;SDS011;5855;48.840;9.188;2022-08-21T14:16:18;2.75;;;1.73;;
11598;SDS011;5855;48.840;9.188;2022-08-21T14:18:47;4.28;;;1.80;;
11598;SDS011;5855;48.840;9.188;2022-08-21T14:21:28;2.35;;;1.60;;
11598;SDS011;5855;48.840;9.188;2022-08-21T14:24:05;2.72;;;1.65;;
11598;SDS011;5855;48.840;9.188;2022-08-21T14:26:35;2.40;;;1.65;;
11598;SDS011;5855;48.840;9.188;2022-08-21T14:29:08;3.55;;;1.80;;
11598;SDS011;5855;48.840;9.188;2022-08-21T14:31:37;2.15;;;1.40;;
11598;SDS011;5855;48.840;9.188;2022-08-21T14:34:05;1.88;;;1.55;;
11598;SDS011;5855;48.840;9.188;2022-08-21T14:36:32;2.85;;;1.67;;
11598;SDS011;5855;48.840;9.188;2022-08-21T14:38:58;2.55;;;1.67;;
11598;SDS011;5855;48.840;9.188;2022-08-21T14:41:25;1.90;;;1.60;;
11598;SDS011;5855;48.840;9.188;2022-08-21T14:43:54;3.25;;;1.65;;
11598;SDS011;5855;48.840;9.188;2022-08-21T14:46:40;2.25;;;1.65;;
11598;SDS011;5855;48.840;9.188;2022-08-21T14:49:06;2.55;;;1.73;;
11598;SDS011;5855;48.840;9.188;2022-08-21T14:51:33;3.33;;;1.60;;
11598;SDS011;5855;48.840;9.188;2022-08-21T14:54:00;2.75;;;1.55;;
11598;SDS011;5855;48.840;9.188;2022-08-21T14:59:12;2.38;;;1.70;;
11598;SDS011;5855;48.840;9.188;2022-08-21T15:01:40;2.42;;;1.50;;
11598;SDS011;5855;48.840;9.188;2022-08-21T15:04:07;2.75;;;1.65;;
11598;SDS011;5855;48.840;9.188;2022-08-21T15:06:34;2.33;;;1.60;;
11598;SDS011;5855;48.840;9.188;2022-08-21T15:09:00;2.08;;;1.60;;
11598;SDS011;5855;48.840;9.188;2022-08-21T15:11:29;1.92;;;1.58;;
11598;SDS011;5855;48.840;9.188;2022-08-21T15:13:56;3.45;;;1.63;;
11598;SDS011;5855;48.840;9.188;2022-08-21T15:16:29;2.25;;;1.73;;
11598;SDS011;5855;48.840;9.188;2022-08-21T15:18:58;4.78;;;1.63;;
11598;SDS011;5855;48.840;9.188;2022-08-21T15:21:25;1.80;;;1.50;;
11598;SDS011;5855;48.840;9.188;2022-08-21T15:23:52;3.13;;;1.70;;